Terminal Aerodrome Forecast
Issued by NWS Springfield, MO

Home | Current Version | Previous Version | Text Only | Print | Product List | Glossary On
Versions: 1 2 3 4 5 6 7 8 9 10 11 12 13 14 15 16 17 18 19 20 21 22
000
FTUS43 KSGF 191720
TAFSGF
TAF
KSGF 191720Z 1918/2018 20015G22KT P6SM SCT250
     FM200000 19015G23KT P6SM SKC WS020/23050KT
     FM201000 18015G18KT 4SM BR SCT007 OVC015 WS020/23045KT=

USA.gov is the U.S. government's official web portal to all federal, state and local government web resources and services.